sensor_id;sensor_type;location;lat;lon;timestamp;temperature;humidity
37658;DHT22;23500;53.268;8.308;2023-06-22T00:02:08;23.30;67.90
37658;DHT22;23500;53.268;8.308;2023-06-22T00:04:34;23.30;67.90
37658;DHT22;23500;53.268;8.308;2023-06-22T00:07:00;23.30;67.90
37658;DHT22;23500;53.268;8.308;2023-06-22T00:09:25;23.30;67.90
37658;DHT22;23500;53.268;8.308;2023-06-22T00:11:51;23.30;67.90
37658;DHT22;23500;53.268;8.308;2023-06-22T00:14:16;23.30;67.90
37658;DHT22;23500;53.268;8.308;2023-06-22T00:16:42;23.30;67.90
37658;DHT22;23500;53.268;8.308;2023-06-22T00:19:08;23.30;67.90
37658;DHT22;23500;53.268;8.308;2023-06-22T00:21:37;23.30;67.90
37658;DHT22;23500;53.268;8.308;2023-06-22T00:24:04;23.30;67.90
37658;DHT22;23500;53.268;8.308;2023-06-22T00:26:29;23.30;67.90
37658;DHT22;23500;53.268;8.308;2023-06-22T00:28:55;23.30;67.90
37658;DHT22;23500;53.268;8.308;2023-06-22T00:31:21;23.30;67.90
37658;DHT22;23500;53.268;8.308;2023-06-22T00:33:46;23.30;67.80
37658;DHT22;23500;53.268;8.308;2023-06-22T00:36:12;23.30;67.90
37658;DHT22;23500;53.268;8.308;2023-06-22T00:38:41;23.30;67.90
37658;DHT22;23500;53.268;8.308;2023-06-22T00:41:07;23.30;67.80
37658;DHT22;23500;53.268;8.308;2023-06-22T00:43:33;23.30;67.80
37658;DHT22;23500;53.268;8.308;2023-06-22T00:45:58;23.30;67.80
37658;DHT22;23500;53.268;8.308;2023-06-22T00:48:24;23.30;67.80
37658;DHT22;23500;53.268;8.308;2023-06-22T00:50:50;23.20;67.80
37658;DHT22;23500;53.268;8.308;2023-06-22T00:53:18;23.20;67.80
37658;DHT22;23500;53.268;8.308;2023-06-22T00:55:45;23.20;67.80
37658;DHT22;23500;53.268;8.308;2023-06-22T00:58:12;23.20;67.80
37658;DHT22;23500;53.268;8.308;2023-06-22T01:00:39;23.30;67.80
37658;DHT22;23500;53.268;8.308;2023-06-22T01:03:05;23.30;67.80
37658;DHT22;23500;53.268;8.308;2023-06-22T01:05:35;23.20;68.40
37658;DHT22;23500;53.268;8.308;2023-06-22T01:08:38;23.20;67.70
37658;DHT22;23500;53.268;8.308;2023-06-22T01:11:16;23.20;67.80
37658;DHT22;23500;53.268;8.308;2023-06-22T01:14:02;23.20;67.70
37658;DHT22;23500;53.268;8.308;2023-06-22T01:16:35;23.20;67.80
37658;DHT22;23500;53.268;8.308;2023-06-22T01:21:44;23.20;67.80
37658;DHT22;23500;53.268;8.308;2023-06-22T01:24:26;23.20;67.80
37658;DHT22;23500;53.268;8.308;2023-06-22T01:27:18;23.20;67.80
37658;DHT22;23500;53.268;8.308;2023-06-22T01:29:56;23.20;67.80
37658;DHT22;23500;53.268;8.308;2023-06-22T01:32:32;23.20;67.80
37658;DHT22;23500;53.268;8.308;2023-06-22T01:35:00;23.20;67.80
37658;DHT22;23500;53.268;8.308;2023-06-22T01:37:27;23.20;67.80
37658;DHT22;23500;53.268;8.308;2023-06-22T01:39:55;23.20;67.80
37658;DHT22;23500;53.268;8.308;2023-06-22T01:42:23;23.20;67.90
37658;DHT22;23500;53.268;8.308;2023-06-22T01:44:49;23.20;67.80
37658;DHT22;23500;53.268;8.308;2023-06-22T01:47:15;23.20;67.80
37658;DHT22;23500;53.268;8.308;2023-06-22T01:49:42;23.20;67.80
37658;DHT22;23500;53.268;8.308;2023-06-22T01:52:08;23.20;67.80
37658;DHT22;23500;53.268;8.308;2023-06-22T01:54:33;23.20;67.80
37658;DHT22;23500;53.268;8.308;2023-06-22T01:56:59;23.20;67.70
37658;DHT22;23500;53.268;8.308;2023-06-22T01:59:48;23.20;67.70
37658;DHT22;23500;53.268;8.308;2023-06-22T02:02:19;23.20;67.70
37658;DHT22;23500;53.268;8.308;2023-06-22T02:04:54;23.20;67.70
37658;DHT22;23500;53.268;8.308;2023-06-22T02:07:23;23.20;67.80
37658;DHT22;23500;53.268;8.308;2023-06-22T02:09:52;23.20;67.80
37658;DHT22;23500;53.268;8.308;2023-06-22T02:12:22;23.20;67.80
37658;DHT22;23500;53.268;8.308;2023-06-22T02:14:48;23.20;67.80
37658;DHT22;23500;53.268;8.308;2023-06-22T02:17:16;23.20;67.80
37658;DHT22;23500;53.268;8.308;2023-06-22T02:19:42;23.20;67.80
37658;DHT22;23500;53.268;8.308;2023-06-22T02:22:07;23.20;67.80
37658;DHT22;23500;53.268;8.308;2023-06-22T02:24:33;23.20;67.80
37658;DHT22;23500;53.268;8.308;2023-06-22T02:27:00;23.20;67.80
37658;DHT22;23500;53.268;8.308;2023-06-22T02:29:27;23.20;67.70
37658;DHT22;23500;53.268;8.308;2023-06-22T02:31:53;23.20;67.70
37658;DHT22;23500;53.268;8.308;2023-06-22T02:34:19;23.20;67.80
37658;DHT22;23500;53.268;8.308;2023-06-22T02:36:49;23.20;67.70
37658;DHT22;23500;53.268;8.308;2023-06-22T02:39:22;23.20;67.80
37658;DHT22;23500;53.268;8.308;2023-06-22T02:41:52;23.20;67.70
37658;DHT22;23500;53.268;8.308;2023-06-22T02:44:18;23.20;67.70
37658;DHT22;23500;53.268;8.308;2023-06-22T02:46:44;23.20;67.80
37658;DHT22;23500;53.268;8.308;2023-06-22T02:49:10;23.20;67.70
37658;DHT22;23500;53.268;8.308;2023-06-22T02:51:39;23.20;67.70
37658;DHT22;23500;53.268;8.308;2023-06-22T02:54:05;23.20;67.70
37658;DHT22;23500;53.268;8.308;2023-06-22T02:56:31;23.20;67.70
37658;DHT22;23500;53.268;8.308;2023-06-22T02:58:57;23.20;67.70
37658;DHT22;23500;53.268;8.308;2023-06-22T03:01:27;23.10;67.70
37658;DHT22;23500;53.268;8.308;2023-06-22T03:03:53;23.10;67.70
37658;DHT22;23500;53.268;8.308;2023-06-22T03:06:19;23.10;67.60
37658;DHT22;23500;53.268;8.308;2023-06-22T03:08:49;23.10;68.00
37658;DHT22;23500;53.268;8.308;2023-06-22T03:11:15;23.10;67.70
37658;DHT22;23500;53.268;8.308;2023-06-22T03:13:40;23.10;67.70
37658;DHT22;23500;53.268;8.308;2023-06-22T03:16:06;23.10;67.60
37658;DHT22;23500;53.268;8.308;2023-06-22T03:18:32;23.10;67.60
37658;DHT22;23500;53.268;8.308;2023-06-22T03:20:57;23.10;67.70
37658;DHT22;23500;53.268;8.308;2023-06-22T03:23:24;23.10;67.70
37658;DHT22;23500;53.268;8.308;2023-06-22T03:25:49;23.10;67.60
37658;DHT22;23500;53.268;8.308;2023-06-22T03:28:15;23.10;67.60
37658;DHT22;23500;53.268;8.308;2023-06-22T03:30:41;23.10;67.60
37658;DHT22;23500;53.268;8.308;2023-06-22T03:33:06;23.10;67.60
37658;DHT22;23500;53.268;8.308;2023-06-22T03:35:32;23.10;67.60
37658;DHT22;23500;53.268;8.308;2023-06-22T03:37:58;23.10;67.70
37658;DHT22;23500;53.268;8.308;2023-06-22T03:40:23;23.10;67.70
37658;DHT22;23500;53.268;8.308;2023-06-22T03:42:49;23.10;67.70
37658;DHT22;23500;53.268;8.308;2023-06-22T03:45:14;23.10;67.70
37658;DHT22;23500;53.268;8.308;2023-06-22T03:47:41;23.10;67.70
37658;DHT22;23500;53.268;8.308;2023-06-22T03:50:06;23.10;67.70
37658;DHT22;23500;53.268;8.308;2023-06-22T03:52:32;23.10;67.70
37658;DHT22;23500;53.268;8.308;2023-06-22T03:54:58;23.10;67.70
37658;DHT22;23500;53.268;8.308;2023-06-22T03:57:24;23.10;67.70
37658;DHT22;23500;53.268;8.308;2023-06-22T03:59:49;23.10;67.70
37658;DHT22;23500;53.268;8.308;2023-06-22T04:02:15;23.10;67.70
37658;DHT22;23500;53.268;8.308;2023-06-22T04:04:41;23.10;68.40
37658;DHT22;23500;53.268;8.308;2023-06-22T04:07:06;23.10;67.70
37658;DHT22;23500;53.268;8.308;2023-06-22T04:09:33;23.10;67.60
37658;DHT22;23500;53.268;8.308;2023-06-22T04:11:58;23.10;67.60
37658;DHT22;23500;53.268;8.308;2023-06-22T04:14:24;23.10;67.60
37658;DHT22;23500;53.268;8.308;2023-06-22T04:16:50;23.10;67.50
37658;DHT22;23500;53.268;8.308;2023-06-22T04:19:15;23.10;67.50
37658;DHT22;23500;53.268;8.308;2023-06-22T04:21:43;23.00;67.40
37658;DHT22;23500;53.268;8.308;2023-06-22T04:24:13;23.00;67.40
37658;DHT22;23500;53.268;8.308;2023-06-22T04:26:38;23.10;67.50
37658;DHT22;23500;53.268;8.308;2023-06-22T04:29:07;23.00;67.40
37658;DHT22;23500;53.268;8.308;2023-06-22T04:31:34;23.00;67.30
37658;DHT22;23500;53.268;8.308;2023-06-22T04:34:03;23.00;67.30
37658;DHT22;23500;53.268;8.308;2023-06-22T04:36:39;23.00;67.40
37658;DHT22;23500;53.268;8.308;2023-06-22T04:39:10;23.00;67.40
37658;DHT22;23500;53.268;8.308;2023-06-22T04:41:38;23.00;67.30
37658;DHT22;23500;53.268;8.308;2023-06-22T04:44:10;23.00;67.30
37658;DHT22;23500;53.268;8.308;2023-06-22T04:46:36;23.00;67.40
37658;DHT22;23500;53.268;8.308;2023-06-22T04:49:09;23.00;67.30
37658;DHT22;23500;53.268;8.308;2023-06-22T04:51:41;23.00;67.40
37658;DHT22;23500;53.268;8.308;2023-06-22T04:54:08;23.00;67.30
37658;DHT22;23500;53.268;8.308;2023-06-22T04:56:34;23.00;67.30
37658;DHT22;23500;53.268;8.308;2023-06-22T04:59:00;23.00;67.40
37658;DHT22;23500;53.268;8.308;2023-06-22T05:01:26;23.00;67.40
37658;DHT22;23500;53.268;8.308;2023-06-22T05:03:52;23.00;67.40
37658;DHT22;23500;53.268;8.308;2023-06-22T05:06:24;23.00;67.40
37658;DHT22;23500;53.268;8.308;2023-06-22T05:08:54;23.00;67.40
37658;DHT22;23500;53.268;8.308;2023-06-22T05:11:27;23.00;67.40
37658;DHT22;23500;53.268;8.308;2023-06-22T05:13:53;23.00;67.40
37658;DHT22;23500;53.268;8.308;2023-06-22T05:16:20;23.00;67.40
37658;DHT22;23500;53.268;8.308;2023-06-22T05:18:56;23.00;67.50
37658;DHT22;23500;53.268;8.308;2023-06-22T05:21:26;23.00;67.80
37658;DHT22;23500;53.268;8.308;2023-06-22T05:23:53;23.00;68.00
37658;DHT22;23500;53.268;8.308;2023-06-22T05:26:22;23.00;68.20
37658;DHT22;23500;53.268;8.308;2023-06-22T05:28:48;23.00;68.20
37658;DHT22;23500;53.268;8.308;2023-06-22T05:31:14;23.00;68.50
37658;DHT22;23500;53.268;8.308;2023-06-22T05:33:41;23.00;69.30
37658;DHT22;23500;53.268;8.308;2023-06-22T05:36:07;22.90;69.50
37658;DHT22;23500;53.268;8.308;2023-06-22T05:38:33;22.90;69.80
37658;DHT22;23500;53.268;8.308;2023-06-22T05:40:58;22.80;69.90
37658;DHT22;23500;53.268;8.308;2023-06-22T05:43:24;22.80;70.00
37658;DHT22;23500;53.268;8.308;2023-06-22T05:45:50;22.90;70.20
37658;DHT22;23500;53.268;8.308;2023-06-22T05:48:15;22.90;70.20
37658;DHT22;23500;53.268;8.308;2023-06-22T05:50:42;22.90;70.10
37658;DHT22;23500;53.268;8.308;2023-06-22T05:53:07;22.90;70.00
37658;DHT22;23500;53.268;8.308;2023-06-22T05:55:33;23.00;69.70
37658;DHT22;23500;53.268;8.308;2023-06-22T05:57:59;23.00;69.50
37658;DHT22;23500;53.268;8.308;2023-06-22T06:00:25;23.00;69.30
37658;DHT22;23500;53.268;8.308;2023-06-22T06:02:50;23.10;69.10
37658;DHT22;23500;53.268;8.308;2023-06-22T06:05:16;23.10;69.00
37658;DHT22;23500;53.268;8.308;2023-06-22T06:07:42;23.10;68.80
37658;DHT22;23500;53.268;8.308;2023-06-22T06:10:09;23.10;68.70
37658;DHT22;23500;53.268;8.308;2023-06-22T06:12:35;23.20;68.60
37658;DHT22;23500;53.268;8.308;2023-06-22T06:15:01;23.20;68.50
37658;DHT22;23500;53.268;8.308;2023-06-22T06:17:27;23.20;68.30
37658;DHT22;23500;53.268;8.308;2023-06-22T06:19:53;23.20;68.30
37658;DHT22;23500;53.268;8.308;2023-06-22T06:22:18;23.20;68.20
37658;DHT22;23500;53.268;8.308;2023-06-22T06:24:46;23.20;68.10
37658;DHT22;23500;53.268;8.308;2023-06-22T06:27:13;23.20;68.00
37658;DHT22;23500;53.268;8.308;2023-06-22T06:29:38;23.30;68.10
37658;DHT22;23500;53.268;8.308;2023-06-22T06:32:04;23.30;68.00
37658;DHT22;23500;53.268;8.308;2023-06-22T06:34:30;23.30;67.90
37658;DHT22;23500;53.268;8.308;2023-06-22T06:36:55;23.30;67.90
37658;DHT22;23500;53.268;8.308;2023-06-22T06:39:21;23.30;67.90
37658;DHT22;23500;53.268;8.308;2023-06-22T06:41:47;23.30;67.90
37658;DHT22;23500;53.268;8.308;2023-06-22T06:44:12;23.30;67.90
37658;DHT22;23500;53.268;8.308;2023-06-22T06:46:38;23.30;67.90
37658;DHT22;23500;53.268;8.308;2023-06-22T06:49:04;23.30;67.80
37658;DHT22;23500;53.268;8.308;2023-06-22T06:51:29;23.30;67.90
37658;DHT22;23500;53.268;8.308;2023-06-22T06:53:55;23.30;67.80
37658;DHT22;23500;53.268;8.308;2023-06-22T06:56:21;23.30;67.80
37658;DHT22;23500;53.268;8.308;2023-06-22T06:58:46;23.30;67.70
37658;DHT22;23500;53.268;8.308;2023-06-22T07:01:12;23.30;67.70
37658;DHT22;23500;53.268;8.308;2023-06-22T07:03:38;23.30;67.70
37658;DHT22;23500;53.268;8.308;2023-06-22T07:06:04;23.30;67.60
37658;DHT22;23500;53.268;8.308;2023-06-22T07:08:29;23.40;67.60
37658;DHT22;23500;53.268;8.308;2023-06-22T07:10:55;23.40;67.60
37658;DHT22;23500;53.268;8.308;2023-06-22T07:13:21;23.40;67.60
37658;DHT22;23500;53.268;8.308;2023-06-22T07:15:47;23.30;67.50
37658;DHT22;23500;53.268;8.308;2023-06-22T07:18:12;23.40;67.60
37658;DHT22;23500;53.268;8.308;2023-06-22T07:20:38;23.40;67.60
37658;DHT22;23500;53.268;8.308;2023-06-22T07:23:04;23.40;67.60
37658;DHT22;23500;53.268;8.308;2023-06-22T07:25:30;23.40;67.60
37658;DHT22;23500;53.268;8.308;2023-06-22T07:28:03;23.40;67.50
37658;DHT22;23500;53.268;8.308;2023-06-22T07:30:31;23.40;67.50
37658;DHT22;23500;53.268;8.308;2023-06-22T07:32:58;23.40;67.40
37658;DHT22;23500;53.268;8.308;2023-06-22T07:35:24;23.40;67.50
37658;DHT22;23500;53.268;8.308;2023-06-22T07:37:50;23.40;67.40
37658;DHT22;23500;53.268;8.308;2023-06-22T07:40:16;23.40;67.40
37658;DHT22;23500;53.268;8.308;2023-06-22T07:42:41;23.40;67.40
37658;DHT22;23500;53.268;8.308;2023-06-22T07:45:08;23.40;67.40
37658;DHT22;23500;53.268;8.308;2023-06-22T07:47:34;23.40;67.40
37658;DHT22;23500;53.268;8.308;2023-06-22T07:50:01;23.40;67.40
37658;DHT22;23500;53.268;8.308;2023-06-22T07:52:28;23.40;67.40
37658;DHT22;23500;53.268;8.308;2023-06-22T07:54:54;23.40;67.30
37658;DHT22;23500;53.268;8.308;2023-06-22T07:57:20;23.40;67.40
37658;DHT22;23500;53.268;8.308;2023-06-22T07:59:46;23.40;67.30
37658;DHT22;23500;53.268;8.308;2023-06-22T08:02:12;23.40;67.30
37658;DHT22;23500;53.268;8.308;2023-06-22T08:04:38;23.40;67.30
37658;DHT22;23500;53.268;8.308;2023-06-22T08:07:05;23.40;67.30
37658;DHT22;23500;53.268;8.308;2023-06-22T08:09:31;23.40;67.40
37658;DHT22;23500;53.268;8.308;2023-06-22T08:11:58;23.40;67.30
37658;DHT22;23500;53.268;8.308;2023-06-22T08:14:25;23.40;67.40
37658;DHT22;23500;53.268;8.308;2023-06-22T08:16:51;23.40;67.30
37658;DHT22;23500;53.268;8.308;2023-06-22T08:19:17;23.40;67.30
37658;DHT22;23500;53.268;8.308;2023-06-22T08:21:43;23.40;67.30
37658;DHT22;23500;53.268;8.308;2023-06-22T08:24:09;23.40;67.30
37658;DHT22;23500;53.268;8.308;2023-06-22T08:26:35;23.40;67.30
37658;DHT22;23500;53.268;8.308;2023-06-22T08:29:03;23.40;67.30
37658;DHT22;23500;53.268;8.308;2023-06-22T08:31:29;23.40;67.30
37658;DHT22;23500;53.268;8.308;2023-06-22T08:33:55;23.40;67.40
37658;DHT22;23500;53.268;8.308;2023-06-22T08:36:21;23.30;67.30
37658;DHT22;23500;53.268;8.308;2023-06-22T08:38:47;23.40;67.40
37658;DHT22;23500;53.268;8.308;2023-06-22T08:41:16;23.30;67.30
37658;DHT22;23500;53.268;8.308;2023-06-22T08:43:43;23.30;67.30
37658;DHT22;23500;53.268;8.308;2023-06-22T08:46:10;23.40;67.50
37658;DHT22;23500;53.268;8.308;2023-06-22T08:48:36;23.30;67.40
37658;DHT22;23500;53.268;8.308;2023-06-22T08:51:01;23.30;67.40
37658;DHT22;23500;53.268;8.308;2023-06-22T08:53:27;23.30;67.40
37658;DHT22;23500;53.268;8.308;2023-06-22T08:55:53;23.30;67.40
37658;DHT22;23500;53.268;8.308;2023-06-22T08:58:19;23.30;67.40
37658;DHT22;23500;53.268;8.308;2023-06-22T09:00:46;23.30;67.50
37658;DHT22;23500;53.268;8.308;2023-06-22T09:03:13;23.30;67.50
37658;DHT22;23500;53.268;8.308;2023-06-22T09:05:38;23.30;67.50
37658;DHT22;23500;53.268;8.308;2023-06-22T09:08:04;23.30;67.50
37658;DHT22;23500;53.268;8.308;2023-06-22T09:10:30;23.40;67.60
37658;DHT22;23500;53.268;8.308;2023-06-22T09:12:57;23.30;67.50
37658;DHT22;23500;53.268;8.308;2023-06-22T09:15:22;23.30;67.50
37658;DHT22;23500;53.268;8.308;2023-06-22T09:17:48;23.30;67.50
37658;DHT22;23500;53.268;8.308;2023-06-22T09:20:14;23.30;67.50
37658;DHT22;23500;53.268;8.308;2023-06-22T09:22:41;23.30;67.50
37658;DHT22;23500;53.268;8.308;2023-06-22T09:25:07;23.30;67.50
37658;DHT22;23500;53.268;8.308;2023-06-22T09:27:33;23.30;67.50
37658;DHT22;23500;53.268;8.308;2023-06-22T09:29:58;23.30;67.50
37658;DHT22;23500;53.268;8.308;2023-06-22T09:32:24;23.30;67.50
37658;DHT22;23500;53.268;8.308;2023-06-22T09:34:51;23.30;67.50
37658;DHT22;23500;53.268;8.308;2023-06-22T09:37:17;23.30;67.50
37658;DHT22;23500;53.268;8.308;2023-06-22T09:39:42;23.30;67.50
37658;DHT22;23500;53.268;8.308;2023-06-22T09:42:08;23.30;67.50
37658;DHT22;23500;53.268;8.308;2023-06-22T09:44:34;23.30;67.50
37658;DHT22;23500;53.268;8.308;2023-06-22T09:47:00;23.30;67.50
37658;DHT22;23500;53.268;8.308;2023-06-22T09:49:26;23.30;67.50
37658;DHT22;23500;53.268;8.308;2023-06-22T09:51:51;23.30;67.50
37658;DHT22;23500;53.268;8.308;2023-06-22T09:54:17;23.30;67.50
37658;DHT22;23500;53.268;8.308;2023-06-22T09:56:43;23.30;67.50
37658;DHT22;23500;53.268;8.308;2023-06-22T09:59:09;23.30;67.50
37658;DHT22;23500;53.268;8.308;2023-06-22T10:01:35;23.30;67.50
37658;DHT22;23500;53.268;8.308;2023-06-22T10:04:02;23.30;67.50
37658;DHT22;23500;53.268;8.308;2023-06-22T10:06:28;23.30;67.50
37658;DHT22;23500;53.268;8.308;2023-06-22T10:08:53;23.30;67.50
37658;DHT22;23500;53.268;8.308;2023-06-22T10:11:19;23.30;67.50
37658;DHT22;23500;53.268;8.308;2023-06-22T10:13:45;23.30;67.50
37658;DHT22;23500;53.268;8.308;2023-06-22T10:16:10;23.30;67.50
37658;DHT22;23500;53.268;8.308;2023-06-22T10:18:36;23.30;67.50
37658;DHT22;23500;53.268;8.308;2023-06-22T10:21:02;23.30;67.50
37658;DHT22;23500;53.268;8.308;2023-06-22T10:23:27;23.30;67.50
37658;DHT22;23500;53.268;8.308;2023-06-22T10:25:53;23.30;67.50
37658;DHT22;23500;53.268;8.308;2023-06-22T10:28:19;23.30;67.50
37658;DHT22;23500;53.268;8.308;2023-06-22T10:30:44;23.30;67.50
37658;DHT22;23500;53.268;8.308;2023-06-22T10:33:11;23.30;67.50
37658;DHT22;23500;53.268;8.308;2023-06-22T10:35:37;23.30;67.50
37658;DHT22;23500;53.268;8.308;2023-06-22T10:38:04;23.30;67.50
37658;DHT22;23500;53.268;8.308;2023-06-22T10:40:30;23.30;67.50
37658;DHT22;23500;53.268;8.308;2023-06-22T10:42:56;23.30;67.50
37658;DHT22;23500;53.268;8.308;2023-06-22T10:45:22;23.30;67.50
37658;DHT22;23500;53.268;8.308;2023-06-22T10:47:47;23.30;67.50
37658;DHT22;23500;53.268;8.308;2023-06-22T10:50:13;23.30;67.50
37658;DHT22;23500;53.268;8.308;2023-06-22T10:52:39;23.30;67.50
37658;DHT22;23500;53.268;8.308;2023-06-22T10:55:07;23.30;67.50
37658;DHT22;23500;53.268;8.308;2023-06-22T10:57:33;23.30;67.50
37658;DHT22;23500;53.268;8.308;2023-06-22T10:59:59;23.30;67.50
37658;DHT22;23500;53.268;8.308;2023-06-22T11:02:25;23.30;67.50
37658;DHT22;23500;53.268;8.308;2023-06-22T11:04:50;23.30;67.50
37658;DHT22;23500;53.268;8.308;2023-06-22T11:07:16;23.30;67.50
37658;DHT22;23500;53.268;8.308;2023-06-22T11:09:43;23.30;67.50
37658;DHT22;23500;53.268;8.308;2023-06-22T11:12:09;23.30;67.50
37658;DHT22;23500;53.268;8.308;2023-06-22T11:14:34;23.30;67.50
37658;DHT22;23500;53.268;8.308;2023-06-22T11:17:00;23.40;67.50
37658;DHT22;23500;53.268;8.308;2023-06-22T11:19:26;23.30;67.50
37658;DHT22;23500;53.268;8.308;2023-06-22T11:21:52;23.30;67.50
37658;DHT22;23500;53.268;8.308;2023-06-22T11:24:17;23.30;67.40
37658;DHT22;23500;53.268;8.308;2023-06-22T11:26:43;23.30;67.50
37658;DHT22;23500;53.268;8.308;2023-06-22T11:29:09;23.30;67.40
37658;DHT22;23500;53.268;8.308;2023-06-22T11:31:35;23.30;67.50
37658;DHT22;23500;53.268;8.308;2023-06-22T11:34:01;23.40;67.50
37658;DHT22;23500;53.268;8.308;2023-06-22T11:36:28;23.30;67.40
37658;DHT22;23500;53.268;8.308;2023-06-22T11:38:54;23.30;67.40
37658;DHT22;23500;53.268;8.308;2023-06-22T11:41:20;23.40;67.50
37658;DHT22;23500;53.268;8.308;2023-06-22T11:43:46;23.40;67.50
37658;DHT22;23500;53.268;8.308;2023-06-22T11:46:11;23.30;67.50
37658;DHT22;23500;53.268;8.308;2023-06-22T11:48:37;23.30;67.40
37658;DHT22;23500;53.268;8.308;2023-06-22T11:51:03;23.30;67.40
37658;DHT22;23500;53.268;8.308;2023-06-22T11:53:29;23.30;67.40
37658;DHT22;23500;53.268;8.308;2023-06-22T11:55:55;23.30;67.40
37658;DHT22;23500;53.268;8.308;2023-06-22T11:58:22;23.40;67.40
37658;DHT22;23500;53.268;8.308;2023-06-22T12:00:48;23.40;67.50
37658;DHT22;23500;53.268;8.308;2023-06-22T12:03:14;23.40;67.40
37658;DHT22;23500;53.268;8.308;2023-06-22T12:05:40;23.40;67.40
37658;DHT22;23500;53.268;8.308;2023-06-22T12:08:06;23.40;67.40
37658;DHT22;23500;53.268;8.308;2023-06-22T12:10:32;23.40;67.40
37658;DHT22;23500;53.268;8.308;2023-06-22T12:12:57;23.40;67.40
37658;DHT22;23500;53.268;8.308;2023-06-22T12:15:25;23.40;67.40
37658;DHT22;23500;53.268;8.308;2023-06-22T12:17:51;23.40;67.40
37658;DHT22;23500;53.268;8.308;2023-06-22T12:20:17;23.40;67.40
37658;DHT22;23500;53.268;8.308;2023-06-22T12:22:43;23.40;67.40
37658;DHT22;23500;53.268;8.308;2023-06-22T12:25:09;23.40;67.40
37658;DHT22;23500;53.268;8.308;2023-06-22T12:27:37;23.40;67.40
37658;DHT22;23500;53.268;8.308;2023-06-22T12:30:04;23.40;67.40
37658;DHT22;23500;53.268;8.308;2023-06-22T12:32:30;23.40;67.40
37658;DHT22;23500;53.268;8.308;2023-06-22T12:34:56;23.40;67.40
37658;DHT22;23500;53.268;8.308;2023-06-22T12:37:22;23.40;68.10
37658;DHT22;23500;53.268;8.308;2023-06-22T12:39:47;23.40;67.40
37658;DHT22;23500;53.268;8.308;2023-06-22T12:42:13;23.40;67.40
37658;DHT22;23500;53.268;8.308;2023-06-22T12:44:39;23.40;67.40
37658;DHT22;23500;53.268;8.308;2023-06-22T12:47:05;23.40;67.40
37658;DHT22;23500;53.268;8.308;2023-06-22T12:49:31;23.40;67.40
37658;DHT22;23500;53.268;8.308;2023-06-22T12:51:57;23.40;67.50
37658;DHT22;23500;53.268;8.308;2023-06-22T12:54:22;23.40;67.50
37658;DHT22;23500;53.268;8.308;2023-06-22T12:56:50;23.40;67.50
37658;DHT22;23500;53.268;8.308;2023-06-22T12:59:16;23.40;67.50
37658;DHT22;23500;53.268;8.308;2023-06-22T13:01:42;23.40;67.40
37658;DHT22;23500;53.268;8.308;2023-06-22T13:04:09;23.40;67.40
37658;DHT22;23500;53.268;8.308;2023-06-22T13:06:38;23.40;67.40
37658;DHT22;23500;53.268;8.308;2023-06-22T13:09:04;23.40;67.50
37658;DHT22;23500;53.268;8.308;2023-06-22T13:11:30;23.40;67.40
37658;DHT22;23500;53.268;8.308;2023-06-22T13:13:56;23.40;67.30
37658;DHT22;23500;53.268;8.308;2023-06-22T13:16:21;23.40;67.30
37658;DHT22;23500;53.268;8.308;2023-06-22T13:18:47;23.40;67.50
37658;DHT22;23500;53.268;8.308;2023-06-22T13:21:13;23.50;67.90
37658;DHT22;23500;53.268;8.308;2023-06-22T13:23:39;23.50;68.00
37658;DHT22;23500;53.268;8.308;2023-06-22T13:26:05;23.50;68.00
37658;DHT22;23500;53.268;8.308;2023-06-22T13:28:31;23.50;68.10
37658;DHT22;23500;53.268;8.308;2023-06-22T13:30:57;23.50;68.50
37658;DHT22;23500;53.268;8.308;2023-06-22T13:33:23;23.50;68.50
37658;DHT22;23500;53.268;8.308;2023-06-22T13:35:48;23.60;68.60
37658;DHT22;23500;53.268;8.308;2023-06-22T13:38:14;23.60;68.60
37658;DHT22;23500;53.268;8.308;2023-06-22T13:40:40;23.60;68.70
37658;DHT22;23500;53.268;8.308;2023-06-22T13:43:06;23.60;69.30
37658;DHT22;23500;53.268;8.308;2023-06-22T13:45:32;23.60;68.90
37658;DHT22;23500;53.268;8.308;2023-06-22T13:47:58;23.60;68.90
37658;DHT22;23500;53.268;8.308;2023-06-22T13:50:24;23.60;68.80
37658;DHT22;23500;53.268;8.308;2023-06-22T13:52:50;23.60;69.00
37658;DHT22;23500;53.268;8.308;2023-06-22T13:55:15;23.60;68.90
37658;DHT22;23500;53.268;8.308;2023-06-22T13:57:42;23.60;69.00
37658;DHT22;23500;53.268;8.308;2023-06-22T14:00:08;23.60;69.10
37658;DHT22;23500;53.268;8.308;2023-06-22T14:02:34;23.60;69.10
37658;DHT22;23500;53.268;8.308;2023-06-22T14:05:00;23.60;69.20
37658;DHT22;23500;53.268;8.308;2023-06-22T14:07:27;23.60;69.40
37658;DHT22;23500;53.268;8.308;2023-06-22T14:09:53;23.60;69.20
37658;DHT22;23500;53.268;8.308;2023-06-22T14:12:19;23.60;69.20
37658;DHT22;23500;53.268;8.308;2023-06-22T14:14:45;23.60;69.30
37658;DHT22;23500;53.268;8.308;2023-06-22T14:17:10;23.60;69.40
37658;DHT22;23500;53.268;8.308;2023-06-22T14:19:36;23.60;69.40
37658;DHT22;23500;53.268;8.308;2023-06-22T14:22:02;23.60;69.40
37658;DHT22;23500;53.268;8.308;2023-06-22T14:24:28;23.60;69.50
37658;DHT22;23500;53.268;8.308;2023-06-22T14:26:54;23.60;69.70
37658;DHT22;23500;53.268;8.308;2023-06-22T14:29:24;23.60;69.60
37658;DHT22;23500;53.268;8.308;2023-06-22T14:31:50;23.60;69.50
37658;DHT22;23500;53.268;8.308;2023-06-22T14:34:16;23.60;69.80
37658;DHT22;23500;53.268;8.308;2023-06-22T14:36:42;23.60;69.80
37658;DHT22;23500;53.268;8.308;2023-06-22T14:39:09;23.60;69.90
37658;DHT22;23500;53.268;8.308;2023-06-22T14:41:34;23.60;69.90
37658;DHT22;23500;53.268;8.308;2023-06-22T14:44:00;23.60;70.10
37658;DHT22;23500;53.268;8.308;2023-06-22T14:46:26;23.60;69.90
37658;DHT22;23500;53.268;8.308;2023-06-22T14:48:52;23.60;70.00
37658;DHT22;23500;53.268;8.308;2023-06-22T14:51:18;23.60;70.00
37658;DHT22;23500;53.268;8.308;2023-06-22T14:53:44;23.70;70.20
37658;DHT22;23500;53.268;8.308;2023-06-22T14:56:10;23.60;70.00
37658;DHT22;23500;53.268;8.308;2023-06-22T14:58:36;23.60;70.00
37658;DHT22;23500;53.268;8.308;2023-06-22T15:01:02;23.60;70.10
37658;DHT22;23500;53.268;8.308;2023-06-22T15:03:29;23.60;70.10
37658;DHT22;23500;53.268;8.308;2023-06-22T15:05:57;23.70;70.10
37658;DHT22;23500;53.268;8.308;2023-06-22T15:08:23;23.60;70.20
37658;DHT22;23500;53.268;8.308;2023-06-22T15:10:51;23.60;70.10
37658;DHT22;23500;53.268;8.308;2023-06-22T15:13:16;23.70;70.10
37658;DHT22;23500;53.268;8.308;2023-06-22T15:15:43;23.70;69.90
37658;DHT22;23500;53.268;8.308;2023-06-22T15:18:09;23.60;69.80
37658;DHT22;23500;53.268;8.308;2023-06-22T15:20:35;23.70;70.00
37658;DHT22;23500;53.268;8.308;2023-06-22T15:23:00;23.70;70.00
37658;DHT22;23500;53.268;8.308;2023-06-22T15:25:26;23.70;70.00
37658;DHT22;23500;53.268;8.308;2023-06-22T15:27:51;23.60;70.00
37658;DHT22;23500;53.268;8.308;2023-06-22T15:30:17;23.70;70.10